WIPL/BKS METAR and TAF weather

Enter ICAO airport designator
Station Type Date Time Source
WIPL METAR UTC NOAA

Error!


Station Type Date Time Source
WIPL Decoded METAR UTC NOAA

Error!

Station Type Date Time Source
WIPL TAF 2014/01/27 06:05 UTC NOAA

TAF WIPL 270500Z 2706/2718 29010KT 9999 SCT018
TEMPO 2710/2714 5000 -TSRA FEW016CB SCT020


Example: see airport list